Time;durP1;ratioP1;P1;durP2;ratioP2;P2;SDS_P1;SDS_P2;PMS_P1;PMS_P2;Temp;Humidity;BMP_temperature;BMP_pressure;BME280_temperature;BME280_humidity;BME280_pressure;Samples;Min_cycle;Max_cycle;Signal;HPM_P1;HPM_P2
2024/01/27 00:01:25;;;;;;;;;;;;;;;-15.05;46.70;97658.50;6319141;28;19924;-68
2024/01/27 00:04:31;;;;;;;;;;;;;;;-15.11;46.79;97658.22;6320185;28;19920;-67
2024/01/27 00:07:32;;;;;;;;;;;;;;;-15.18;46.60;97658.69;6319601;28;19949;-66
2024/01/27 00:10:35;;;;;;;;;;;;;;;-15.25;46.80;97665.13;6318937;28;19924;-67
2024/01/27 00:13:38;;;;;;;;;;;;;;;-15.30;46.81;97660.66;6320347;28;19924;-66
2024/01/27 00:16:42;;;;;;;;;;;;;;;-15.34;46.74;97658.75;6319205;28;19924;-67
2024/01/27 00:19:43;;;;;;;;;;;;;;;-15.39;46.44;97661.06;6342693;28;20000;-66
2024/01/27 00:22:44;;;;;;;;;;;;;;;-15.42;47.08;97661.78;6343954;28;19924;-67
2024/01/27 00:25:45;;;;;;;;;;;;;;;-15.43;47.09;97665.09;6343930;28;20293;-67
2024/01/27 00:28:48;;;;;;;;;;;;;;;-15.42;46.94;97661.78;6343930;28;19984;-67
2024/01/27 00:31:50;;;;;;;;;;;;;;;-15.43;46.81;97654.13;6344871;28;19927;-65
2024/01/27 00:34:53;;;;;;;;;;;;;;;-15.43;47.68;97660.03;6344572;28;19947;-66
2024/01/27 00:37:59;;;;;;;;;;;;;;;-15.43;49.58;97660.03;6344800;28;19924;-67
2024/01/27 00:41:05;;;;;;;;;;;;;;;-15.39;48.25;97656.88;6344677;28;20331;-66
2024/01/27 00:44:08;;;;;;;;;;;;;;;-15.39;47.64;97661.06;6343964;28;19939;-67
2024/01/27 00:47:09;;;;;;;;;;;;;;;-15.41;47.49;97663.50;6343991;28;19930;-66
2024/01/27 00:50:13;;;;;;;;;;;;;;;-15.44;47.04;97668.41;6344647;28;20004;-67
2024/01/27 00:53:16;;;;;;;;;;;;;;;-15.48;46.81;97671.59;6344538;28;19924;-66
2024/01/27 00:56:17;;;;;;;;;;;;;;;-15.45;47.53;97668.34;6344206;28;19945;-66
2024/01/27 00:59:18;;;;;;;;;;;;;;;-15.39;47.77;97672.03;6343229;28;20048;-67
2024/01/27 01:02:19;;;;;;;;;;;;;;;-15.34;47.77;97663.78;6343199;28;20000;-66
2024/01/27 01:05:20;;;;;;;;;;;;;;;-15.30;47.65;97660.66;6326242;28;20432;-67
2024/01/27 01:08:26;;;;;;;;;;;;;;;-15.28;48.07;97659.94;6326639;28;19923;-67
2024/01/27 01:11:27;;;;;;;;;;;;;;;-15.27;47.63;97660.78;6343297;28;19924;-67
2024/01/27 01:14:33;;;;;;;;;;;;;;;-15.27;48.27;97655.75;6344150;28;19931;-67
2024/01/27 01:17:36;;;;;;;;;;;;;;;-15.29;47.63;97652.28;6343875;28;20072;-66
2024/01/27 01:20:42;;;;;;;;;;;;;;;-15.27;48.09;97645.66;6343821;28;19924;-68
2024/01/27 01:23:43;;;;;;;;;;;;;;;-15.26;48.11;97645.69;6343624;28;19924;-66
2024/01/27 01:26:44;;;;;;;;;;;;;;;-15.24;48.23;97646.66;6344670;28;19923;-67
2024/01/27 01:29:45;;;;;;;;;;;;;;;-15.21;48.42;97640.88;6348270;28;19924;-65
2024/01/27 01:32:48;;;;;;;;;;;;;;;-15.20;49.01;97647.66;6348262;28;19988;-67
2024/01/27 01:35:49;;;;;;;;;;;;;;;-15.20;48.31;97648.53;6347897;28;19923;-66
2024/01/27 01:38:50;;;;;;;;;;;;;;;-15.18;48.38;97651.13;6329639;28;19946;-67
2024/01/27 01:41:51;;;;;;;;;;;;;;;-15.14;48.40;97654.66;6348290;28;19971;-67
2024/01/27 01:44:54;;;;;;;;;;;;;;;-15.15;48.57;97656.31;6348680;28;20018;-66
2024/01/27 01:47:57;;;;;;;;;;;;;;;-15.12;48.52;97656.47;6348744;28;19927;-66
2024/01/27 01:51:01;;;;;;;;;;;;;;;-15.09;48.37;97661.66;6348740;28;19920;-67
2024/01/27 01:54:02;;;;;;;;;;;;;;;-15.07;48.40;97656.69;6347655;28;19946;-66
2024/01/27 01:57:06;;;;;;;;;;;;;;;-15.10;48.03;97659.06;6348473;28;19928;-67
2024/01/27 02:00:07;;;;;;;;;;;;;;;-15.13;48.18;97664.84;6347858;28;19938;-68
2024/01/27 02:03:12;;;;;;;;;;;;;;;-15.16;47.93;97679.84;6348411;28;19968;-67
2024/01/27 02:06:13;;;;;;;;;;;;;;;-15.20;47.44;97672.91;6347286;28;19920;-67
2024/01/27 02:09:16;;;;;;;;;;;;;;;-15.25;47.22;97680.25;6347583;28;19946;-68
2024/01/27 02:12:20;;;;;;;;;;;;;;;-15.26;47.18;97687.75;6347118;28;19924;-67
2024/01/27 02:15:25;;;;;;;;;;;;;;;-15.29;47.24;97691.00;6348050;28;20006;-66
2024/01/27 02:18:27;;;;;;;;;;;;;;;-15.33;47.46;97695.84;6334660;28;19981;-67
2024/01/27 02:21:29;;;;;;;;;;;;;;;-15.37;47.22;97684.69;6321504;28;19965;-66
2024/01/27 02:24:30;;;;;;;;;;;;;;;-15.41;47.56;97678.66;6321945;28;20539;-66
2024/01/27 02:27:33;;;;;;;;;;;;;;;-15.41;47.52;97688.75;6322562;28;20397;-66
2024/01/27 02:30:39;;;;;;;;;;;;;;;-15.42;47.15;97697.13;6322594;28;20429;-66
2024/01/27 02:33:41;;;;;;;;;;;;;;;-15.44;47.03;97697.81;6321845;28;20315;-65
2024/01/27 02:36:43;;;;;;;;;;;;;;;-15.44;47.37;97708.78;6321730;28;19923;-66
2024/01/27 02:39:49;;;;;;;;;;;;;;;-15.42;47.11;97704.69;6321005;28;19928;-66
2024/01/27 02:42:50;;;;;;;;;;;;;;;-15.40;47.56;97700.59;6303688;28;19924;-66
2024/01/27 02:45:54;;;;;;;;;;;;;;;-15.39;47.51;97697.25;6322165;28;19924;-66
2024/01/27 02:48:55;;;;;;;;;;;;;;;-15.35;47.12;97697.41;6321282;28;20402;-67
2024/01/27 02:51:59;;;;;;;;;;;;;;;-15.33;47.65;97710.97;6321907;28;20073;-66
2024/01/27 02:55:00;;;;;;;;;;;;;;;-15.33;47.66;97705.94;6303212;28;20397;-67
2024/01/27 02:58:04;;;;;;;;;;;;;;;-15.33;47.93;97700.88;6321809;28;20085;-66
2024/01/27 03:01:08;;;;;;;;;;;;;;;-15.32;47.96;97697.56;6321566;28;19928;-67
2024/01/27 03:04:11;;;;;;;;;;;;;;;-15.30;47.51;97695.97;6321657;28;19924;-67
2024/01/27 03:07:12;;;;;;;;;;;;;;;-15.31;47.42;97699.28;6321638;28;19924;-66
2024/01/27 03:10:15;;;;;;;;;;;;;;;-15.32;47.74;97697.56;6321340;28;20030;-67
2024/01/27 03:13:19;;;;;;;;;;;;;;;-15.34;48.09;97689.94;6321794;28;19924;-66
2024/01/27 03:16:22;;;;;;;;;;;;;;;-15.39;47.78;97699.78;6320575;28;19924;-66
2024/01/27 03:19:25;;;;;;;;;;;;;;;-15.46;47.90;97699.41;6321136;28;19978;-68
2024/01/27 03:22:29;;;;;;;;;;;;;;;-15.50;47.49;97708.47;6320490;28;20363;-67
2024/01/27 03:25:29;;;;;;;;;;;;;;;-15.58;47.85;97702.19;6321142;28;19920;-66
2024/01/27 03:28:33;;;;;;;;;;;;;;;-15.66;48.17;97704.31;6303559;28;19924;-67
2024/01/27 03:31:39;;;;;;;;;;;;;;;-15.68;47.91;97693.34;6321637;28;19932;-67
2024/01/27 03:34:45;;;;;;;;;;;;;;;-15.73;48.48;97693.91;6320840;28;20072;-66
2024/01/27 03:37:46;;;;;;;;;;;;;;;-15.79;48.36;97696.09;6320399;28;19923;-66
2024/01/27 03:40:49;;;;;;;;;;;;;;;-15.85;47.91;97692.50;6320668;28;19924;-66
2024/01/27 03:43:50;;;;;;;;;;;;;;;-15.89;47.90;97697.31;6319557;28;19967;-67
2024/01/27 03:46:51;;;;;;;;;;;;;;;-15.91;48.08;97698.88;6320350;28;19924;-67
2024/01/27 03:49:52;;;;;;;;;;;;;;;-15.87;48.01;97700.78;6319853;28;20389;-67
2024/01/27 03:52:53;;;;;;;;;;;;;;;-15.81;47.76;97715.34;6301757;28;20066;-66
2024/01/27 03:56:04;;;;;;;;;;;;;;;-15.74;47.83;97722.41;6320101;28;19928;-66
2024/01/27 03:59:08;;;;;;;;;;;;;;;-15.67;47.66;97724.44;6320328;28;19923;-68
2024/01/27 04:02:10;;;;;;;;;;;;;;;-15.55;47.36;97729.22;6320451;28;20080;-67
2024/01/27 04:05:14;;;;;;;;;;;;;;;-15.46;47.37;97730.53;6320086;28;20309;-67
2024/01/27 04:08:15;;;;;;;;;;;;;;;-15.34;46.78;97730.31;6320051;28;19928;-67
2024/01/27 04:11:22;;;;;;;;;;;;;;;-15.23;47.05;97728.28;6319090;28;20332;-67
2024/01/27 04:14:25;;;;;;;;;;;;;;;-15.10;46.80;97737.31;6320051;28;19931;-67
2024/01/27 04:17:26;;;;;;;;;;;;;;;-14.94;46.50;97738.13;6324602;28;19931;-66
2024/01/27 04:20:27;;;;;;;;;;;;;;;-14.80;46.34;97735.38;6326569;28;20432;-66
2024/01/27 04:23:28;;;;;;;;;;;;;;;-14.63;46.40;97744.66;6344975;28;19930;-67
2024/01/27 04:26:29;;;;;;;;;;;;;;;-14.47;45.91;97747.03;6344922;28;19931;-66
2024/01/27 04:29:31;;;;;;;;;;;;;;;-14.28;46.53;97753.81;6344904;28;19924;-67
2024/01/27 04:32:32;;;;;;;;;;;;;;;-14.11;46.00;97757.09;6344596;28;19938;-67
2024/01/27 04:35:36;;;;;;;;;;;;;;;-13.99;46.40;97755.91;6344378;28;20412;-67
2024/01/27 04:38:39;;;;;;;;;;;;;;;-13.86;46.50;97750.59;6344840;28;19934;-67
2024/01/27 04:41:44;;;;;;;;;;;;;;;-13.70;46.48;97745.44;6344661;28;19924;-66
2024/01/27 04:44:45;;;;;;;;;;;;;;;-13.49;46.26;97752.19;6343938;28;19940;-68
2024/01/27 04:47:51;;;;;;;;;;;;;;;-13.32;47.29;97758.84;6344452;28;19923;-67
2024/01/27 04:50:56;;;;;;;;;;;;;;;-13.18;46.45;97746.72;6344482;28;19923;-66
2024/01/27 04:53:59;;;;;;;;;;;;;;;-13.01;45.45;97749.94;6343393;28;19923;-67
2024/01/27 04:57:00;;;;;;;;;;;;;;;-12.87;46.41;97753.91;6325466;28;20026;-67
2024/01/27 05:00:01;;;;;;;;;;;;;;;-12.72;46.41;97751.13;6344330;28;19931;-68
2024/01/27 05:03:07;;;;;;;;;;;;;;;-12.51;45.82;97753.63;6344016;28;19931;-67
2024/01/27 05:06:08;;;;;;;;;;;;;;;-12.28;46.01;97752.00;6343294;28;20316;-67
2024/01/27 05:09:11;;;;;;;;;;;;;;;-12.05;45.49;97755.38;6344169;28;20305;-67
2024/01/27 05:12:17;;;;;;;;;;;;;;;-11.86;44.97;97752.72;6344054;28;20312;-67
2024/01/27 05:15:20;;;;;;;;;;;;;;;-11.70;45.08;97743.09;6344003;28;19924;-67
2024/01/27 05:18:23;;;;;;;;;;;;;;;-11.46;44.73;97746.50;6331123;28;19931;-66
2024/01/27 05:21:27;;;;;;;;;;;;;;;-11.19;44.52;97743.16;6317955;28;19931;-68
2024/01/27 05:24:28;;;;;;;;;;;;;;;-10.93;44.81;97746.56;6300291;28;19924;-68
2024/01/27 05:27:28;;;;;;;;;;;;;;;-10.72;44.47;97741.34;6317928;28;19928;-67
2024/01/27 05:30:32;;;;;;;;;;;;;;;-10.48;44.10;97741.22;6300567;28;19969;-68
2024/01/27 05:33:33;;;;;;;;;;;;;;;-10.27;44.29;97746.13;6318606;28;19955;-68
2024/01/27 05:36:34;;;;;;;;;;;;;;;-10.14;44.28;97752.41;6318539;28;20285;-67
2024/01/27 05:39:35;;;;;;;;;;;;;;;-9.87;44.73;97758.31;6318575;28;20308;-68
2024/01/27 05:42:41;;;;;;;;;;;;;;;-9.42;43.17;97762.16;6318374;28;20080;-68
2024/01/27 05:45:42;;;;;;;;;;;;;;;-9.01;43.17;97768.31;6300149;28;19924;-67
2024/01/27 05:48:46;;;;;;;;;;;;;;;-8.81;42.70;97758.63;6318368;28;20393;-67
2024/01/27 05:51:50;;;;;;;;;;;;;;;-8.88;42.48;97766.97;6318373;28;20022;-67
2024/01/27 05:54:51;;;;;;;;;;;;;;;-8.94;42.68;97766.81;6318113;28;19924;-68
2024/01/27 05:57:52;;;;;;;;;;;;;;;-8.88;42.93;97755.06;6318595;28;19924;-67
2024/01/27 06:00:58;;;;;;;;;;;;;;;-8.69;43.06;97755.53;6318388;28;19923;-67
2024/01/27 06:04:04;;;;;;;;;;;;;;;-8.50;43.04;97749.19;6318425;28;19924;-68
2024/01/27 06:07:07;;;;;;;;;;;;;;;-8.44;42.53;97754.44;6318175;28;19924;-68
2024/01/27 06:10:09;;;;;;;;;;;;;;;-8.40;42.67;97753.69;6318033;28;19931;-68
2024/01/27 06:13:13;;;;;;;;;;;;;;;-8.36;42.64;97758.84;6318042;28;19924;-68
2024/01/27 06:16:14;;;;;;;;;;;;;;;-8.15;43.05;97762.75;6321780;28;19923;-68
2024/01/27 06:19:15;;;;;;;;;;;;;;;-7.89;42.56;97770.13;6342890;28;19930;-68
2024/01/27 06:22:17;;;;;;;;;;;;;;;-7.66;42.93;97757.84;6347713;28;19924;-67
2024/01/27 06:25:20;;;;;;;;;;;;;;;-7.50;42.75;97760.75;6348168;28;20336;-68
2024/01/27 06:28:23;;;;;;;;;;;;;;;-7.43;43.11;97766.81;6347625;28;19923;-68
2024/01/27 06:31:29;;;;;;;;;;;;;;;-7.50;42.92;97775.19;6347915;28;19931;-67
2024/01/27 06:34:31;;;;;;;;;;;;;;;-7.63;42.74;97778.34;6347276;28;19931;-68
2024/01/27 06:37:32;;;;;;;;;;;;;;;-7.76;43.90;97795.94;6347531;28;20395;-69
2024/01/27 06:40:35;;;;;;;;;;;;;;;-7.66;42.81;97788.50;6347391;28;19927;-68
2024/01/27 06:43:47;;;;;;;;;;;;;;;-7.51;42.86;97782.00;6347335;28;20340;-67
2024/01/27 06:46:51;;;;;;;;;;;;;;;-7.27;42.79;97794.44;6346476;28;19923;-67
2024/01/27 06:49:54;;;;;;;;;;;;;;;-6.87;42.11;97796.91;6347390;28;19951;-67
2024/01/27 06:52:55;;;;;;;;;;;;;;;-5.94;42.09;97788.19;6347091;28;19930;-69
2024/01/27 06:56:01;;;;;;;;;;;;;;;-3.74;39.79;97803.28;6312597;28;19923;-67
2024/01/27 06:59:04;;;;;;;;;;;;;;;0.77;33.97;97810.06;6346165;28;19946;-68
2024/01/27 07:02:05;;;;;;;;;;;;;;;4.55;30.64;97796.16;6328619;28;19931;-68
2024/01/27 07:05:09;;;;;;;;;;;;;;;6.72;29.21;97810.50;6347227;28;19924;-68
2024/01/27 07:08:12;;;;;;;;;;;;;;;8.71;27.25;97809.03;6347060;28;20285;-68
2024/01/27 07:11:15;;;;;;;;;;;;;;;8.55;27.96;97800.97;6346007;28;19923;-67
2024/01/27 07:14:22;;;;;;;;;;;;;;;6.81;29.30;97808.47;6346644;28;20014;-69
2024/01/27 07:17:23;;;;;;;;;;;;;;;4.89;30.63;97799.56;6341442;28;19931;-69
2024/01/27 07:20:28;;;;;;;;;;;;;;;3.26;32.66;97794.84;6321125;28;19989;-67
2024/01/27 07:23:30;;;;;;;;;;;;;;;2.85;35.30;97809.50;6320207;28;20447;-67
2024/01/27 07:26:31;;;;;;;;;;;;;;;3.35;34.25;97805.06;6320792;28;20026;-68
2024/01/27 07:29:33;;;;;;;;;;;;;;;3.32;33.33;97804.28;6320348;28;19924;-69
2024/01/27 07:32:37;;;;;;;;;;;;;;;3.23;33.39;97812.25;6321023;28;20337;-69
2024/01/27 07:35:40;;;;;;;;;;;;;;;3.32;33.47;97814.66;6320761;28;20340;-67
2024/01/27 07:38:43;;;;;;;;;;;;;;;2.93;33.05;97809.38;6320667;28;19923;-68
2024/01/27 07:41:49;;;;;;;;;;;;;;;2.06;34.17;97795.34;6320748;28;20393;-68
2024/01/27 07:44:53;;;;;;;;;;;;;;;1.85;34.13;97791.38;6320875;28;19924;-69
2024/01/27 07:47:55;;;;;;;;;;;;;;;2.28;33.31;97791.50;6320107;28;20015;-68
2024/01/27 07:50:59;;;;;;;;;;;;;;;3.34;32.82;97787.75;6320465;28;19931;-67
2024/01/27 07:54:02;;;;;;;;;;;;;;;4.51;30.63;97792.78;6320227;28;20313;-68
2024/01/27 07:57:08;;;;;;;;;;;;;;;4.83;29.91;97786.72;6320545;28;19924;-68
2024/01/27 08:00:09;;;;;;;;;;;;;;;4.17;31.16;97784.97;6320074;28;20358;-68
2024/01/27 08:03:12;;;;;;;;;;;;;;;3.57;31.55;97781.19;6320512;28;19924;-68
2024/01/27 08:06:21;;;;;;;;;;;;;;;3.84;31.94;97771.88;6319997;28;19924;-68
2024/01/27 08:09:22;;;;;;;;;;;;;;;4.51;30.73;97764.13;6301859;28;19924;-68
2024/01/27 08:12:27;;;;;;;;;;;;;;;4.33;30.15;97767.19;6320126;28;20023;-68
2024/01/27 08:15:33;;;;;;;;;;;;;;;3.87;31.34;97771.78;6320013;28;20394;-68
2024/01/27 08:18:34;;;;;;;;;;;;;;;3.39;31.79;97761.59;6319686;28;19924;-69
2024/01/27 08:21:37;;;;;;;;;;;;;;;2.48;32.46;97772.97;6319006;28;20317;-69
2024/01/27 08:24:39;;;;;;;;;;;;;;;1.64;32.84;97770.03;6318848;28;19931;-68
2024/01/27 08:27:43;;;;;;;;;;;;;;;0.41;34.14;97769.00;6318573;28;20049;-68
2024/01/27 08:30:47;;;;;;;;;;;;;;;-0.69;35.73;97780.22;6302003;28;19928;-69
2024/01/27 08:33:53;;;;;;;;;;;;;;;-1.24;36.00;97776.19;6319651;28;20018;-68
2024/01/27 08:37:01;;;;;;;;;;;;;;;-0.95;36.29;97770.88;6318152;28;19924;-68
2024/01/27 08:40:02;;;;;;;;;;;;;;;-0.39;34.07;97755.91;6319293;28;19924;-69
2024/01/27 08:43:07;;;;;;;;;;;;;;;0.65;33.41;97756.63;6319278;28;19924;-68
2024/01/27 08:46:13;;;;;;;;;;;;;;;1.51;31.72;97763.31;6319308;28;19962;-67
2024/01/27 08:49:17;;;;;;;;;;;;;;;1.64;31.14;97759.66;6320065;28;19928;-70
2024/01/27 08:52:18;;;;;;;;;;;;;;;1.06;31.66;97769.13;6318484;28;20414;-69
2024/01/27 08:55:24;;;;;;;;;;;;;;;0.53;33.13;97767.16;6319114;28;19924;-68
2024/01/27 08:58:28;;;;;;;;;;;;;;;0.31;32.89;97769.09;6318709;28;20141;-69
2024/01/27 09:01:33;;;;;;;;;;;;;;;0.37;32.71;97767.31;6319095;28;20309;-69
2024/01/27 09:04:36;;;;;;;;;;;;;;;0.67;31.77;97767.84;6318817;28;19924;-68
2024/01/27 09:07:42;;;;;;;;;;;;;;;1.25;31.23;97764.56;6319153;28;19924;-68
2024/01/27 09:10:43;;;;;;;;;;;;;;;1.87;30.85;97768.81;6318760;28;19924;-67
2024/01/27 09:13:48;;;;;;;;;;;;;;;1.94;30.37;97771.28;6318916;28;19924;-69
2024/01/27 09:16:52;;;;;;;;;;;;;;;1.46;30.83;97763.38;6318007;28;19931;-68
2024/01/27 09:19:53;;;;;;;;;;;;;;;0.85;32.28;97774.53;6299913;28;20061;-68
2024/01/27 09:22:57;;;;;;;;;;;;;;;0.05;32.50;97765.00;6318077;28;19928;-68
2024/01/27 09:25:59;;;;;;;;;;;;;;;-0.53;32.62;97766.34;6318661;28;19924;-68
2024/01/27 09:29:00;;;;;;;;;;;;;;;-0.92;33.57;97780.34;6318554;28;19924;-67
2024/01/27 09:32:01;;;;;;;;;;;;;;;-1.74;32.42;97769.41;6318972;28;19970;-67
2024/01/27 09:35:05;;;;;;;;;;;;;;;-2.42;35.14;97778.91;6318620;28;20000;-67
2024/01/27 09:38:11;;;;;;;;;;;;;;;-2.61;34.77;97774.59;6318556;28;19924;-68
2024/01/27 09:41:15;;;;;;;;;;;;;;;-2.54;35.00;97776.31;6318534;28;19924;-68
2024/01/27 09:44:19;;;;;;;;;;;;;;;-2.55;34.25;97772.00;6318792;28;20394;-68
2024/01/27 09:47:25;;;;;;;;;;;;;;;-2.28;34.42;97772.03;6318729;28;19981;-69
2024/01/27 09:50:26;;;;;;;;;;;;;;;-1.45;33.68;97774.50;6322995;28;20065;-69
2024/01/27 09:53:30;;;;;;;;;;;;;;;-0.74;32.61;97767.31;6323089;28;19924;-66
2024/01/27 09:56:32;;;;;;;;;;;;;;;-0.44;31.99;97774.91;6322619;28;19935;-67
2024/01/27 09:59:39;;;;;;;;;;;;;;;-0.30;31.26;97770.50;6323196;28;20005;-68
2024/01/27 10:02:42;;;;;;;;;;;;;;;-0.07;31.04;97776.34;6323277;28;19928;-68
2024/01/27 10:05:43;;;;;;;;;;;;;;;0.89;30.60;97777.09;6322046;28;19931;-68
2024/01/27 10:08:54;;;;;;;;;;;;;;;1.61;30.27;97783.03;6323089;28;19934;-67
2024/01/27 10:11:57;;;;;;;;;;;;;;;1.97;29.46;97775.59;6322879;28;19924;-68
2024/01/27 10:15:00;;;;;;;;;;;;;;;2.48;29.12;97785.97;6322694;28;19924;-68
2024/01/27 10:18:05;;;;;;;;;;;;;;;3.21;28.78;97785.44;6331661;28;19930;-68
2024/01/27 10:21:16;;;;;;;;;;;;;;;3.72;28.42;97782.56;6347325;28;19923;-68
2024/01/27 10:24:17;;;;;;;;;;;;;;;3.61;28.18;97780.22;6346846;28;19934;-68
2024/01/27 10:27:23;;;;;;;;;;;;;;;2.86;29.30;97779.19;6347749;28;19924;-68
2024/01/27 10:30:28;;;;;;;;;;;;;;;1.65;29.81;97776.94;6347927;28;20045;-67
2024/01/27 10:33:32;;;;;;;;;;;;;;;0.67;31.29;97775.63;6347733;28;19924;-68
2024/01/27 10:36:42;;;;;;;;;;;;;;;-0.42;32.75;97784.38;6347086;28;20026;-69
2024/01/27 10:39:46;;;;;;;;;;;;;;;-1.81;34.12;97791.81;6347422;28;20083;-67
2024/01/27 10:42:58;;;;;;;;;;;;;;;-2.74;35.37;97781.44;6347285;28;19924;-67
2024/01/27 10:46:00;;;;;;;;;;;;;;;-3.31;35.95;97782.94;6346660;28;19934;-68
2024/01/27 10:49:03;;;;;;;;;;;;;;;-3.54;35.93;97780.25;6347246;28;19974;-67
2024/01/27 10:52:08;;;;;;;;;;;;;;;-3.71;36.25;97791.34;6347261;28;20489;-70
2024/01/27 10:55:10;;;;;;;;;;;;;;;-3.85;36.10;97785.22;6345851;28;20296;-68
2024/01/27 10:58:12;;;;;;;;;;;;;;;-3.90;36.20;97799.78;6347041;28;20444;-67
2024/01/27 11:01:17;;;;;;;;;;;;;;;-3.95;35.97;97798.88;6346232;28;20022;-67
2024/01/27 11:04:19;;;;;;;;;;;;;;;-3.96;36.19;97799.72;6347221;28;19924;-67
2024/01/27 11:07:23;;;;;;;;;;;;;;;-3.91;35.90;97795.47;6346671;28;19981;-67
2024/01/27 11:10:25;;;;;;;;;;;;;;;-3.93;35.75;97797.19;6346752;28;19924;-68
2024/01/27 11:13:31;;;;;;;;;;;;;;;-3.98;35.99;97794.56;6346796;28;20018;-69
2024/01/27 11:16:35;;;;;;;;;;;;;;;-4.12;35.79;97791.91;6346015;28;19924;-68
2024/01/27 11:19:36;;;;;;;;;;;;;;;-4.26;36.29;97793.50;6346390;28;19931;-66
2024/01/27 11:22:37;;;;;;;;;;;;;;;-4.35;36.18;97793.44;6346491;28;19923;-67
2024/01/27 11:25:39;;;;;;;;;;;;;;;-4.52;36.73;97801.84;6346095;28;20396;-69
2024/01/27 11:28:41;;;;;;;;;;;;;;;-4.93;36.65;97796.25;6346468;28;19926;-68
2024/01/27 11:31:44;;;;;;;;;;;;;;;-5.31;37.51;97793.28;6346275;28;19927;-68
2024/01/27 11:34:47;;;;;;;;;;;;;;;-5.67;37.72;97786.81;6346976;28;20068;-68
2024/01/27 11:37:53;;;;;;;;;;;;;;;-5.94;38.11;97793.31;6346226;28;20401;-68
2024/01/27 11:40:54;;;;;;;;;;;;;;;-6.21;38.40;97778.38;6346005;28;19930;-69
2024/01/27 11:43:59;;;;;;;;;;;;;;;-6.47;38.88;97790.75;6345855;28;19923;-68
2024/01/27 11:47:00;;;;;;;;;;;;;;;-6.72;39.16;97783.50;6345636;28;19923;-68
2024/01/27 11:50:01;;;;;;;;;;;;;;;-6.90;39.91;97792.56;6345127;28;19924;-66
2024/01/27 11:53:02;;;;;;;;;;;;;;;-7.11;39.77;97787.03;6345601;28;20412;-68
2024/01/27 11:56:07;;;;;;;;;;;;;;;-7.20;39.18;97800.53;6345247;28;19923;-69
2024/01/27 11:59:09;;;;;;;;;;;;;;;-7.24;39.28;97789.38;6345540;28;20418;-68
2024/01/27 12:02:10;;;;;;;;;;;;;;;-7.43;40.06;97801.75;6345379;28;19924;-68
2024/01/27 12:05:15;;;;;;;;;;;;;;;-7.61;40.06;97792.00;6345386;28;19924;-69
2024/01/27 12:08:17;;;;;;;;;;;;;;;-7.71;39.83;97809.69;6343818;28;19924;-68
2024/01/27 12:11:18;;;;;;;;;;;;;;;-7.89;40.39;97806.75;6343885;28;19930;-68
2024/01/27 12:14:21;;;;;;;;;;;;;;;-7.98;41.29;97806.50;6344679;28;19930;-68
2024/01/27 12:17:25;;;;;;;;;;;;;;;-8.19;41.71;97807.75;6340251;28;19931;-67
2024/01/27 12:20:26;;;;;;;;;;;;;;;-8.33;42.81;97811.66;6319752;28;20490;-67
2024/01/27 12:23:31;;;;;;;;;;;;;;;-8.77;43.35;97815.69;6319148;28;19924;-68
2024/01/27 12:26:33;;;;;;;;;;;;;;;-9.05;44.06;97815.84;6318689;28;20321;-68
2024/01/27 12:29:40;;;;;;;;;;;;;;;-9.42;44.79;97808.00;6319708;28;19928;-67
2024/01/27 12:32:43;;;;;;;;;;;;;;;-9.76;44.86;97801.94;6318601;28;19923;-68
2024/01/27 12:35:49;;;;;;;;;;;;;;;-9.85;45.09;97812.72;6318604;28;20407;-68
2024/01/27 12:39:00;;;;;;;;;;;;;;;-9.84;44.60;97808.47;6319411;28;19930;-68
2024/01/27 12:42:03;;;;;;;;;;;;;;;-9.80;44.24;97805.19;6318703;28;20044;-67
2024/01/27 12:45:05;;;;;;;;;;;;;;;-9.74;44.14;97802.81;6318130;28;19924;-67
2024/01/27 12:48:07;;;;;;;;;;;;;;;-9.74;44.14;97811.34;6317937;28;19931;-67
2024/01/27 12:51:10;;;;;;;;;;;;;;;-9.76;44.18;97809.59;6318969;28;19924;-67
2024/01/27 12:54:12;;;;;;;;;;;;;;;-9.78;43.65;97818.84;6318177;28;20455;-67
2024/01/27 12:57:13;;;;;;;;;;;;;;;-9.85;44.18;97817.81;6318202;28;19924;-69
2024/01/27 13:00:17;;;;;;;;;;;;;;;-9.91;44.67;97817.59;6318482;28;19928;-67
2024/01/27 13:03:18;;;;;;;;;;;;;;;-9.91;45.15;97821.84;6318469;28;19924;-67
2024/01/27 13:06:20;;;;;;;;;;;;;;;-9.85;45.78;97827.09;6318517;28;19924;-68
2024/01/27 13:09:26;;;;;;;;;;;;;;;-9.79;45.05;97815.44;6318755;28;20059;-68
2024/01/27 13:12:29;;;;;;;;;;;;;;;-9.74;43.95;97810.47;6317864;28;20399;-67
2024/01/27 13:15:35;;;;;;;;;;;;;;;-9.78;44.21;97824.81;6318964;28;19924;-68
2024/01/27 13:18:37;;;;;;;;;;;;;;;-9.79;44.29;97828.19;6318056;28;20302;-68
2024/01/27 13:21:40;;;;;;;;;;;;;;;-9.84;44.28;97823.75;6318005;28;20023;-69
2024/01/27 13:24:42;;;;;;;;;;;;;;;-9.88;43.92;97834.66;6322408;28;20304;-67
2024/01/27 13:27:43;;;;;;;;;;;;;;;-9.99;44.09;97830.13;6324010;28;20053;-69
2024/01/27 13:30:47;;;;;;;;;;;;;;;-10.13;44.21;97823.75;6323808;28;19923;-67
2024/01/27 13:33:49;;;;;;;;;;;;;;;-10.25;44.29;97830.97;6323103;28;19920;-67
2024/01/27 13:36:50;;;;;;;;;;;;;;;-10.32;44.54;97834.19;6323006;28;19924;-68
2024/01/27 13:39:51;;;;;;;;;;;;;;;-10.44;44.70;97832.97;6322476;28;20387;-67
2024/01/27 13:42:53;;;;;;;;;;;;;;;-10.51;44.76;97830.16;6322079;28;19923;-68
2024/01/27 13:45:56;;;;;;;;;;;;;;;-10.55;44.75;97830.91;6322172;28;19924;-69
2024/01/27 13:48:59;;;;;;;;;;;;;;;-10.53;44.34;97830.13;6323213;28;19924;-68
2024/01/27 13:52:03;;;;;;;;;;;;;;;-10.44;44.75;97824.47;6323488;28;19924;-67
2024/01/27 13:55:07;;;;;;;;;;;;;;;-10.33;44.43;97833.31;6323053;28;19931;-68
2024/01/27 13:58:08;;;;;;;;;;;;;;;-10.22;44.88;97831.06;6322989;28;19924;-68
2024/01/27 14:01:11;;;;;;;;;;;;;;;-10.15;44.71;97833.00;6322785;28;19924;-68
2024/01/27 14:04:15;;;;;;;;;;;;;;;-10.09;44.02;97832.31;6323368;28;19924;-67
2024/01/27 14:07:18;;;;;;;;;;;;;;;-10.03;44.29;97835.91;6322392;28;19924;-68
2024/01/27 14:10:19;;;;;;;;;;;;;;;-9.98;44.30;97836.94;6321850;28;19924;-67
2024/01/27 14:13:20;;;;;;;;;;;;;;;-9.91;44.02;97834.56;6323106;28;20410;-67
2024/01/27 14:16:26;;;;;;;;;;;;;;;-9.88;44.14;97832.09;6322877;28;19924;-68
2024/01/27 14:19:30;;;;;;;;;;;;;;;-9.87;45.22;97834.72;6322738;28;19946;-67
2024/01/27 14:22:36;;;;;;;;;;;;;;;-9.89;44.67;97835.47;6322930;28;20038;-68
2024/01/27 14:25:38;;;;;;;;;;;;;;;-9.91;44.53;97837.13;6322016;28;19924;-68
2024/01/27 14:28:42;;;;;;;;;;;;;;;-9.98;44.60;97839.47;6322460;28;19924;-68
2024/01/27 14:31:44;;;;;;;;;;;;;;;-10.04;44.95;97846.94;6322262;28;19931;-67
2024/01/27 14:34:44;;;;;;;;;;;;;;;-10.15;44.69;97848.28;6320886;28;19924;-67
2024/01/27 14:37:49;;;;;;;;;;;;;;;-10.29;44.92;97844.47;6322517;28;19924;-69
2024/01/27 14:40:52;;;;;;;;;;;;;;;-10.44;45.12;97845.69;6321414;28;20382;-68
2024/01/27 14:43:56;;;;;;;;;;;;;;;-10.55;45.32;97841.06;6322348;28;19931;-68
2024/01/27 14:46:57;;;;;;;;;;;;;;;-10.67;45.28;97846.59;6321147;28;19924;-67
2024/01/27 14:50:00;;;;;;;;;;;;;;;-10.76;45.38;97857.31;6322161;28;19924;-67
2024/01/27 14:53:05;;;;;;;;;;;;;;;-10.82;45.41;97866.41;6320963;28;19924;-67
2024/01/27 14:56:06;;;;;;;;;;;;;;;-10.96;45.37;97854.09;6320970;28;19931;-68
2024/01/27 14:59:07;;;;;;;;;;;;;;;-11.10;45.88;97850.19;6321820;28;20385;-68
2024/01/27 15:02:09;;;;;;;;;;;;;;;-11.21;46.06;97854.03;6320610;28;19925;-68
2024/01/27 15:05:10;;;;;;;;;;;;;;;-11.30;46.07;97857.97;6321846;28;19924;-67
2024/01/27 15:08:16;;;;;;;;;;;;;;;-11.37;46.22;97850.09;6321720;28;19924;-68
2024/01/27 15:11:19;;;;;;;;;;;;;;;-11.44;46.41;97859.16;6320459;28;19924;-67
2024/01/27 15:14:25;;;;;;;;;;;;;;;-11.49;46.63;97865.75;6321296;28;19924;-68
2024/01/27 15:17:30;;;;;;;;;;;;;;;-11.54;46.88;97862.19;6326831;28;20308;-66
2024/01/27 15:20:31;;;;;;;;;;;;;;;-11.58;46.89;97867.94;6345800;28;19924;-68
2024/01/27 15:23:36;;;;;;;;;;;;;;;-11.65;46.59;97868.53;6345521;28;19930;-68
2024/01/27 15:26:38;;;;;;;;;;;;;;;-11.70;46.75;97870.88;6345441;28;20021;-68
2024/01/27 15:29:40;;;;;;;;;;;;;;;-11.66;46.88;97874.38;6345827;28;19946;-66
2024/01/27 15:32:41;;;;;;;;;;;;;;;-11.60;46.91;97874.66;6345352;28;20011;-68
2024/01/27 15:35:42;;;;;;;;;;;;;;;-11.53;46.78;97880.00;6345892;28;19924;-68
2024/01/27 15:38:46;;;;;;;;;;;;;;;-11.47;46.78;97876.81;6346084;28;20012;-68
2024/01/27 15:41:49;;;;;;;;;;;;;;;-11.43;46.46;97881.22;6346156;28;19924;-67
2024/01/27 15:44:50;;;;;;;;;;;;;;;-11.41;46.44;97878.72;6345502;28;19924;-68
2024/01/27 15:47:53;;;;;;;;;;;;;;;-11.41;46.77;97884.66;6345750;28;19923;-68